.
WxDataArchive / Data Records for 2012-09-30
2012-09-29 September 2012 2012-10-01

Data Records for Sunday, 30 September 2012

Time	Temp	Chill	HIndex	Humid	Dewpt	 Wind 	HiWind	WindDir	Rain 	Barom 
-----	----	-----	------	-----	-----	------	------	-------	-----	----- 
00:00	52.5	52.5	52.5	70	43.0	0	0	---	0.00	29.929 
00:05	52.3	52.3	52.3	70	42.8	0	0	---	0.00	29.929 
00:10	52.5	52.5	52.5	71	43.4	0	0	---	0.00	29.929 
00:15	52.3	52.3	52.3	71	43.2	0	0	---	0.00	29.925 
00:20	52.0	52.0	52.0	72	43.3	0	0	---	0.00	29.925 
00:25	51.6	51.6	51.6	73	43.2	0	0	---	0.00	29.925 
00:30	51.3	51.3	51.3	74	43.3	0	0	---	0.00	29.924 
00:35	50.8	50.8	50.8	75	43.2	0	0	---	0.00	29.924 
00:40	50.5	50.5	50.5	76	43.2	0	0	---	0.00	29.924 
00:45	50.7	50.7	50.7	77	43.8	0	0	---	0.00	29.921 
00:50	50.8	50.8	50.8	77	43.9	0	0	---	0.00	29.921 
00:55	50.8	50.8	50.8	77	43.9	0	0	---	0.00	29.921 
01:00	50.8	50.8	50.8	77	43.9	0	0	---	0.00	29.914 
01:05	50.8	50.8	50.8	77	43.9	0	0	---	0.00	29.914 
01:10	50.7	50.7	50.7	77	43.8	0	0	---	0.00	29.914 
01:15	50.5	50.5	50.5	77	43.6	0	0	---	0.00	29.910 
01:20	50.2	50.2	50.2	77	43.3	0	0	---	0.00	29.910 
01:25	50.1	50.1	50.1	78	43.5	0	0	---	0.00	29.910 
01:30	49.8	49.8	49.8	78	43.2	0	0	---	0.00	29.909 
01:35	49.6	49.6	49.6	79	43.4	0	0	---	0.00	29.909 
01:40	49.6	49.6	49.6	80	43.7	0	0	---	0.00	29.909 
01:45	49.5	49.5	49.5	81	43.9	0	0	---	0.00	29.909 
01:50	49.5	49.5	49.5	81	43.9	0	0	---	0.00	29.909 
01:55	49.5	49.5	49.5	81	43.9	0	0	---	0.00	29.909 
02:00	49.5	49.5	49.5	81	43.9	0	0	---	0.00	29.909 
02:05	49.4	49.4	49.4	82	44.1	0	0	---	0.00	29.909 
02:10	49.5	49.5	49.5	82	44.2	0	0	---	0.00	29.909 
02:15	49.8	49.8	49.8	82	44.5	0	0	---	0.00	29.909 
02:20	49.9	49.9	49.9	81	44.3	0	0	---	0.00	29.909 
02:25	49.9	49.9	49.9	81	44.3	0	0	---	0.00	29.909 
02:30	49.8	49.8	49.8	81	44.2	0	0	---	0.00	29.907 
02:35	49.8	49.8	49.8	81	44.2	0	0	---	0.00	29.907 
02:40	49.8	49.8	49.8	82	44.5	0	0	---	0.00	29.907 
02:45	49.8	49.8	49.8	82	44.5	0	0	---	0.00	29.901 
02:50	49.8	49.8	49.8	82	44.5	0	1	292	0.00	29.901 
02:55	49.6	49.6	49.6	82	44.3	0	0	---	0.00	29.901 
03:00	49.6	49.6	49.6	82	44.3	0	0	---	0.00	29.897 
03:05	49.6	49.6	49.6	83	44.7	0	0	---	0.00	29.897 
03:10	49.8	49.8	49.8	83	44.8	0	0	---	0.00	29.897 
03:15	49.8	49.8	49.8	83	44.8	0	1	292	0.00	29.898 
03:20	49.6	49.6	49.6	83	44.7	0	0	---	0.00	29.898 
03:25	49.6	49.6	49.6	84	45.0	0	1	292	0.00	29.898 
03:30	49.6	49.6	49.6	84	45.0	0	0	---	0.00	29.894 
03:35	49.5	49.5	49.5	84	44.9	0	0	---	0.00	29.894 
03:40	49.4	49.4	49.4	84	44.8	0	0	---	0.00	29.894 
03:45	49.1	49.1	49.1	84	44.5	0	0	---	0.00	29.894 
03:50	48.8	48.8	48.8	84	44.2	0	0	---	0.00	29.894 
03:55	48.3	48.3	48.3	85	44.0	0	0	---	0.00	29.894 
04:00	48.0	48.0	48.0	85	43.7	0	0	---	0.00	29.894 
04:05	47.7	47.7	47.7	86	43.7	0	0	---	0.00	29.894 
04:10	47.6	47.6	47.6	87	43.9	0	0	---	0.00	29.894 
04:15	47.4	47.4	47.4	87	43.7	0	0	---	0.00	29.889 
04:20	47.6	47.6	47.6	88	44.2	0	0	---	0.00	29.889 
04:25	47.4	47.4	47.4	88	44.0	0	0	---	0.00	29.889 
04:30	47.3	47.3	47.3	88	43.9	0	0	---	0.00	29.888 
04:35	47.1	47.1	47.1	88	43.7	0	0	---	0.00	29.888 
04:40	47.0	47.0	47.0	89	43.9	0	0	---	0.00	29.888 
04:45	46.8	46.8	46.8	89	43.7	0	0	---	0.00	29.888 
04:50	46.8	46.8	46.8	89	43.7	0	0	---	0.00	29.888 
04:55	46.8	46.8	46.8	90	44.0	0	0	---	0.00	29.888 
05:00	46.8	46.8	46.8	90	44.0	0	0	---	0.00	29.884 
05:05	46.7	46.7	46.7	90	43.9	0	0	---	0.00	29.884 
05:10	46.7	46.7	46.7	90	43.9	0	0	---	0.00	29.884 
05:15	46.7	46.7	46.7	90	43.9	0	0	---	0.00	29.884 
05:20	46.5	46.5	46.5	90	43.7	0	0	---	0.00	29.884 
05:25	46.4	46.4	46.4	90	43.6	0	0	---	0.00	29.884 
05:30	46.2	46.2	46.2	91	43.7	0	0	---	0.00	29.883 
05:35	46.1	46.1	46.1	91	43.6	0	0	---	0.00	29.883 
05:40	46.0	46.0	46.0	91	43.5	0	0	---	0.00	29.883 
05:45	45.8	45.8	45.8	91	43.3	0	0	---	0.00	29.884 
05:50	45.7	45.7	45.7	91	43.2	0	0	---	0.00	29.884 
05:55	45.7	45.7	45.7	91	43.2	0	0	---	0.00	29.884 
06:00	45.5	45.5	45.5	91	43.0	0	0	---	0.00	29.883 
06:05	45.4	45.4	45.4	91	42.9	0	0	---	0.00	29.883 
06:10	45.2	45.2	45.2	91	42.7	0	0	---	0.00	29.883 
06:15	45.2	45.2	45.2	92	43.0	0	0	---	0.00	29.885 
06:20	45.2	45.2	45.2	92	43.0	0	0	---	0.00	29.885 
06:25	45.2	45.2	45.2	92	43.0	0	0	---	0.00	29.885 
06:30	45.1	45.1	45.1	92	42.9	0	0	---	0.00	29.885 
06:35	44.9	44.9	44.9	92	42.7	0	0	---	0.00	29.885 
06:40	44.8	44.8	44.8	92	42.6	0	0	---	0.00	29.885 
06:45	44.6	44.6	44.6	92	42.4	0	0	---	0.00	29.886 
06:50	44.5	44.5	44.5	92	42.3	0	0	---	0.00	29.886 
06:55	44.3	44.3	44.3	92	42.1	0	0	---	0.00	29.886 
07:00	44.2	44.2	44.2	92	42.0	0	0	---	0.00	29.886 
07:05	43.9	43.9	43.9	92	41.7	0	0	---	0.00	29.886 
07:10	43.8	43.8	43.8	92	41.6	0	0	---	0.00	29.886 
07:15	43.6	43.6	43.6	92	41.4	0	0	---	0.00	29.899 
07:20	43.6	43.6	43.6	92	41.4	0	0	---	0.00	29.899 
07:25	43.5	43.5	43.5	92	41.3	0	0	---	0.00	29.899 
07:30	43.5	43.5	43.5	92	41.3	0	0	---	0.00	29.899 
07:35	43.3	43.3	43.3	92	41.1	0	0	---	0.00	29.899 
07:40	43.2	43.2	43.2	92	41.0	0	0	---	0.00	29.899 
07:45	43.1	43.1	43.1	92	40.9	0	0	---	0.00	29.906 
07:50	43.1	43.1	43.1	92	40.9	0	0	---	0.00	29.906 
07:55	43.1	43.1	43.1	92	40.9	0	0	---	0.00	29.906 
08:00	42.9	42.9	42.9	92	40.7	0	0	---	0.00	29.908 
08:05	42.9	42.9	42.9	93	41.0	0	0	---	0.00	29.908 
08:10	42.9	42.9	42.9	93	41.0	0	0	---	0.00	29.908 
08:15	43.1	43.1	43.1	93	41.2	0	0	---	0.00	29.912 
08:20	43.2	43.2	43.2	93	41.3	0	0	---	0.00	29.912 
08:25	43.6	43.6	43.6	94	42.0	0	0	---	0.00	29.912 
08:30	44.2	44.2	44.2	94	42.6	0	0	---	0.00	29.918 
08:35	44.8	44.8	44.8	94	43.2	0	0	---	0.00	29.918 
08:40	45.4	45.4	45.4	94	43.8	0	1	292	0.00	29.918 
08:45	46.0	46.0	46.0	94	44.4	0	0	---	0.00	29.923 
08:50	46.5	46.5	46.5	94	44.9	0	0	---	0.00	29.923 
08:55	47.0	47.0	47.0	94	45.4	0	0	---	0.00	29.923 
09:00	47.4	47.4	47.4	94	45.8	0	2	270	0.00	29.922 
09:05	47.9	47.9	47.9	94	46.3	0	2	270	0.00	29.922 
09:10	48.3	48.3	48.3	94	46.7	0	3	270	0.00	29.922 
09:15	48.8	48.8	48.8	94	47.1	0	2	90	0.00	29.923 
09:20	49.4	49.4	49.4	93	47.5	0	2	90	0.00	29.923 
09:25	49.8	49.8	49.8	93	47.9	0	2	90	0.00	29.923 
09:30	50.2	50.2	50.2	92	48.0	0	4	90	0.00	29.923 
09:35	50.7	50.7	50.7	91	48.2	0	3	90	0.00	29.923 
09:40	51.1	51.1	51.1	90	48.3	1	4	90	0.00	29.923 
09:45	51.7	51.7	51.7	89	48.6	1	3	112	0.00	29.924 
09:50	52.2	52.2	52.2	88	48.8	1	4	112	0.00	29.924 
09:55	52.8	52.8	52.8	87	49.0	1	3	112	0.00	29.924 
10:00	53.2	53.2	53.2	86	49.1	0	2	112	0.00	29.927 
10:05	53.6	53.6	53.6	84	48.9	0	4	112	0.00	29.927 
10:10	54.4	54.4	54.4	83	49.3	1	5	90	0.00	29.927 
10:15	54.8	54.8	54.8	80	48.7	1	3	135	0.00	29.923 
10:20	55.6	55.6	55.6	78	48.8	0	3	135	0.00	29.923 
10:25	56.5	56.5	56.5	76	49.0	1	4	158	0.00	29.923 
10:30	57.2	57.2	57.2	73	48.6	0	2	158	0.00	29.923 
10:35	58.0	58.0	58.0	70	48.3	1	3	158	0.00	29.923 
10:40	58.4	58.4	58.4	69	48.3	1	3	158	0.00	29.923 
10:45	59.0	59.0	59.0	66	47.7	2	5	90	0.00	29.925 
10:50	59.3	59.3	59.3	64	47.1	2	5	90	0.00	29.925 
10:55	59.8	59.8	59.8	65	48.0	2	5	90	0.00	29.925 
11:00	60.4	60.4	60.4	64	48.2	1	3	90	0.00	29.928 
11:05	60.7	60.7	60.7	61	47.2	1	5	112	0.00	29.928 
11:10	61.0	61.0	61.0	62	47.9	1	7	90	0.00	29.928 
11:15	61.0	61.0	61.0	61	47.5	1	7	112	0.00	29.934 
11:20	61.3	61.3	61.3	62	48.2	2	5	90	0.00	29.934 
11:25	61.5	61.5	61.5	62	48.4	1	4	158	0.00	29.934 
11:30	61.5	61.5	61.5	61	47.9	1	5	45	0.00	29.933 
11:35	61.3	61.3	61.3	62	48.2	1	5	315	0.00	29.933 
11:40	61.6	61.6	61.6	62	48.4	0	5	45	0.00	29.933 
11:45	62.0	62.0	62.0	57	46.6	3	7	112	0.00	29.932 
11:50	62.3	62.3	62.3	57	46.9	2	5	90	0.00	29.932 
11:55	62.3	62.3	62.3	56	46.4	1	5	135	0.00	29.932 
12:00	62.4	62.4	62.4	56	46.5	2	7	90	0.00	29.932 
12:05	62.7	62.7	62.7	56	46.8	3	6	90	0.00	29.932 
12:10	62.7	62.7	62.7	57	47.2	4	9	112	0.00	29.932 
12:15	62.7	62.7	62.7	56	46.8	2	8	90	0.00	29.934 
12:20	63.2	63.2	63.2	55	46.8	2	5	135	0.00	29.934 
12:25	63.5	63.5	63.5	55	47.0	2	10	112	0.00	29.934 
12:30	63.9	63.9	63.9	53	46.4	4	13	90	0.00	29.935 
12:35	63.9	63.9	63.9	54	46.9	2	12	112	0.00	29.935 
12:40	63.9	63.9	63.9	54	46.9	4	7	90	0.00	29.935 
12:45	63.9	63.9	63.9	54	46.9	1	4	112	0.00	29.932 
12:50	64.2	64.2	64.2	50	45.2	1	2	22	0.00	29.932 
12:55	64.3	64.3	64.3	52	46.3	1	5	90	0.00	29.932 
13:00	64.2	64.2	64.2	49	44.6	1	10	135	0.00	29.935 
13:05	63.9	63.9	63.9	50	44.9	1	5	135	0.00	29.935 
13:10	64.2	64.2	64.2	50	45.2	2	4	90	0.00	29.935 
13:15	64.2	64.2	64.2	51	45.7	2	6	90	0.00	29.934 
13:20	64.5	64.5	64.5	50	45.4	1	3	112	0.00	29.934 
13:25	64.5	64.5	64.5	50	45.4	3	10	90	0.00	29.934 
13:30	64.2	64.2	64.2	50	45.2	4	12	90	0.00	29.935 
13:35	64.3	64.3	64.3	50	45.3	3	7	112	0.00	29.935 
13:40	64.7	64.7	64.7	49	45.1	1	4	135	0.00	29.935 
13:45	64.0	64.0	64.0	50	45.0	1	5	112	0.00	29.932 
13:50	63.9	63.9	63.9	50	44.9	1	6	112	0.00	29.932 
13:55	63.2	63.2	63.2	51	44.8	1	4	135	0.00	29.932 
14:00	62.9	62.9	62.9	51	44.5	2	10	90	0.00	29.932 
14:05	62.4	62.4	62.4	52	44.5	0	2	90	0.00	29.932 
14:10	62.7	62.7	62.7	54	45.8	1	7	90	0.00	29.932 
14:15	62.9	62.9	62.9	53	45.5	1	6	90	0.00	29.931 
14:20	62.9	62.9	62.9	54	46.0	0	2	90	0.00	29.931 
14:25	63.7	63.7	63.7	51	45.2	1	3	90	0.00	29.931 
14:30	64.0	64.0	64.0	51	45.5	1	9	112	0.00	29.924 
14:35	64.2	64.2	64.2	46	43.0	2	10	90	0.00	29.924 
14:40	64.0	64.0	64.0	50	45.0	3	12	112	0.00	29.924 
14:45	63.9	63.9	63.9	49	44.4	4	11	90	0.00	29.919 
14:50	63.7	63.7	63.7	49	44.2	2	6	112	0.00	29.919 
14:55	63.7	63.7	63.7	48	43.6	2	6	112	0.00	29.919 
15:00	64.0	64.0	64.0	48	43.9	3	12	90	0.00	29.916 
15:05	64.5	64.5	64.5	49	44.9	1	6	112	0.00	29.916 
15:10	64.8	64.8	64.8	47	44.1	1	5	135	0.00	29.916 
15:15	64.5	64.5	64.5	48	44.4	1	4	112	0.00	29.917 
15:20	64.7	64.7	64.7	49	45.1	0	2	68	0.00	29.917 
15:25	65.0	65.0	65.0	46	43.7	1	5	112	0.00	29.917 
15:30	65.0	65.0	65.0	44	42.6	2	5	112	0.00	29.916 
15:35	65.2	65.2	65.2	43	42.1	1	5	112	0.00	29.916 
15:40	65.2	65.2	65.2	42	41.5	1	3	112	0.00	29.916 
15:45	65.2	65.2	65.2	42	41.5	2	6	112	0.00	29.911 
15:50	65.3	65.3	65.3	46	44.0	1	3	68	0.00	29.911 
15:55	65.3	65.3	65.3	44	42.8	2	7	112	0.00	29.911 
16:00	65.0	65.0	65.0	43	42.0	2	9	90	0.00	29.902 
16:05	65.2	65.2	65.2	46	43.9	0	2	68	0.00	29.902 
16:10	65.2	65.2	65.2	41	40.9	1	4	68	0.00	29.902 
16:15	65.0	65.0	65.0	42	41.3	3	9	90	0.00	29.900 
16:20	65.0	65.0	65.0	44	42.6	1	4	90	0.00	29.900 
16:25	65.2	65.2	65.2	43	42.1	1	4	90	0.00	29.900 
16:30	65.2	65.2	65.2	46	43.9	1	4	90	0.00	29.898 
16:35	65.2	65.2	65.2	43	42.1	2	6	90	0.00	29.898 
16:40	64.7	64.7	64.7	42	41.1	3	9	90	0.00	29.898 
16:45	64.3	64.3	64.3	40	39.5	3	5	90	0.00	29.900 
16:50	64.2	64.2	64.2	41	40.0	1	5	112	0.00	29.900 
16:55	64.2	64.2	64.2	41	40.0	1	2	90	0.00	29.900 
17:00	64.3	64.3	64.3	43	41.3	0	2	90	0.00	29.890 
17:05	64.5	64.5	64.5	43	41.5	1	5	90	0.00	29.890 
17:10	64.7	64.7	64.7	43	41.7	2	4	112	0.00	29.890 
17:15	64.7	64.7	64.7	43	41.7	2	6	90	0.00	29.893 
17:20	64.5	64.5	64.5	41	40.3	2	5	90	0.00	29.893 
17:25	64.5	64.5	64.5	42	40.9	0	5	112	0.00	29.893 
17:30	64.5	64.5	64.5	40	39.6	0	1	112	0.00	29.893 
17:35	64.5	64.5	64.5	41	40.3	1	4	112	0.00	29.893 
17:40	64.5	64.5	64.5	43	41.5	0	3	248	0.00	29.893 
17:45	64.3	64.3	64.3	43	41.3	1	4	112	0.00	29.892 
17:50	64.2	64.2	64.2	42	40.6	1	4	90	0.00	29.892 
17:55	64.0	64.0	64.0	43	41.1	0	4	90	0.00	29.892 
18:00	64.0	64.0	64.0	42	40.4	0	2	90	0.00	29.900 
18:05	63.9	63.9	63.9	42	40.4	0	2	90	0.00	29.900 
18:10	63.7	63.7	63.7	42	40.2	0	2	90	0.00	29.900 
18:15	63.7	63.7	63.7	42	40.2	0	3	90	0.00	29.905 
18:20	63.7	63.7	63.7	43	40.8	0	2	90	0.00	29.905 
18:25	63.5	63.5	63.5	44	41.2	1	3	90	0.00	29.905 
18:30	63.4	63.4	63.4	44	41.1	0	2	90	0.00	29.907 
18:35	63.2	63.2	63.2	45	41.5	0	2	90	0.00	29.907 
18:40	63.1	63.1	63.1	44	40.8	0	2	90	0.00	29.907 
18:45	62.9	62.9	62.9	45	41.2	0	0	---	0.00	29.915 
18:50	62.6	62.6	62.6	46	41.5	0	0	---	0.00	29.915 
18:55	62.4	62.4	62.4	46	41.3	0	2	90	0.00	29.915 
19:00	62.1	62.1	62.1	47	41.6	0	0	---	0.00	29.916 
19:05	61.8	61.8	61.8	48	41.9	0	0	---	0.00	29.916 
19:10	61.3	61.3	61.3	48	41.4	0	0	---	0.00	29.916 
19:15	60.9	60.9	60.9	49	41.6	0	0	---	0.00	29.919 
19:20	60.4	60.4	60.4	50	41.7	0	0	---	0.00	29.919 
19:25	59.8	59.8	59.8	51	41.6	0	0	---	0.00	29.919 
19:30	59.3	59.3	59.3	52	41.7	0	0	---	0.00	29.925 
19:35	58.9	58.9	58.9	52	41.3	0	0	---	0.00	29.925 
19:40	58.4	58.4	58.4	53	41.3	0	0	---	0.00	29.925 
19:45	58.0	58.0	58.0	55	41.9	0	0	---	0.00	29.928 
19:50	57.3	57.3	57.3	57	42.2	0	0	---	0.00	29.928 
19:55	56.7	56.7	56.7	58	42.1	0	0	---	0.00	29.928 
20:00	56.3	56.3	56.3	59	42.2	0	0	---	0.00	29.928 
20:05	55.7	55.7	55.7	61	42.5	0	0	---	0.00	29.928 
20:10	55.4	55.4	55.4	62	42.6	0	0	---	0.00	29.928 
20:15	55.0	55.0	55.0	62	42.2	0	0	---	0.00	29.925 
20:20	54.5	54.5	54.5	62	41.7	0	0	---	0.00	29.925 
20:25	54.2	54.2	54.2	62	41.5	0	0	---	0.00	29.925 
20:30	53.8	53.8	53.8	65	42.3	0	0	---	0.00	29.927 
20:35	53.5	53.5	53.5	66	42.4	0	0	---	0.00	29.927 
20:40	53.2	53.2	53.2	67	42.5	0	0	---	0.00	29.927 
20:45	52.9	52.9	52.9	67	42.2	0	0	---	0.00	29.929 
20:50	52.6	52.6	52.6	68	42.3	0	0	---	0.00	29.929 
20:55	52.3	52.3	52.3	69	42.4	0	0	---	0.00	29.929 
21:00	52.0	52.0	52.0	70	42.5	0	0	---	0.00	29.931 
21:05	51.7	51.7	51.7	70	42.2	0	0	---	0.00	29.931 
21:10	51.4	51.4	51.4	71	42.3	0	0	---	0.00	29.931 
21:15	51.1	51.1	51.1	73	42.7	0	0	---	0.00	29.933 
21:20	51.0	51.0	51.0	73	42.7	0	0	---	0.00	29.933 
21:25	50.8	50.8	50.8	74	42.8	0	0	---	0.00	29.933 
21:30	50.5	50.5	50.5	74	42.5	0	0	---	0.00	29.937 
21:35	50.2	50.2	50.2	75	42.6	0	0	---	0.00	29.937 
21:40	50.1	50.1	50.1	75	42.5	0	0	---	0.00	29.937 
21:45	49.9	49.9	49.9	76	42.6	0	0	---	0.00	29.942 
21:50	49.6	49.6	49.6	76	42.3	0	0	---	0.00	29.942 
21:55	49.5	49.5	49.5	77	42.6	0	0	---	0.00	29.942 
22:00	49.2	49.2	49.2	77	42.3	0	0	---	0.00	29.946 
22:05	49.1	49.1	49.1	78	42.5	0	0	---	0.00	29.946 
22:10	48.9	48.9	48.9	79	42.7	0	0	---	0.00	29.946 
22:15	48.8	48.8	48.8	79	42.6	0	0	---	0.00	29.947 
22:20	48.6	48.6	48.6	80	42.7	0	0	---	0.00	29.947 
22:25	48.5	48.5	48.5	80	42.6	0	0	---	0.00	29.947 
22:30	48.2	48.2	48.2	80	42.3	0	0	---	0.00	29.950 
22:35	48.0	48.0	48.0	81	42.5	0	0	---	0.00	29.950 
22:40	47.7	47.7	47.7	81	42.2	0	0	---	0.00	29.950 
22:45	47.7	47.7	47.7	81	42.2	0	0	---	0.00	29.952 
22:50	47.6	47.6	47.6	81	42.1	0	0	---	0.00	29.952 
22:55	47.6	47.6	47.6	81	42.1	0	0	---	0.00	29.952 
23:00	47.4	47.4	47.4	81	41.9	0	0	---	0.00	29.956 
23:05	47.4	47.4	47.4	81	41.9	0	0	---	0.00	29.956 
23:10	47.3	47.3	47.3	81	41.8	0	0	---	0.00	29.956 
23:15	47.3	47.3	47.3	81	41.8	0	0	---	0.00	29.952 
23:20	47.1	47.1	47.1	81	41.6	0	0	---	0.00	29.952 
23:25	47.0	47.0	47.0	82	41.8	0	0	---	0.00	29.952 
23:30	47.0	47.0	47.0	82	41.8	0	0	---	0.00	29.952 
23:35	46.8	46.8	46.8	83	41.9	0	0	---	0.00	29.952 
23:40	46.8	46.8	46.8	83	41.9	0	0	---	0.00	29.952 
23:45	46.7	46.7	46.7	84	42.1	0	0	---	0.00	29.949 
23:50	46.5	46.5	46.5	84	41.9	0	0	---	0.00	29.949 
23:55	46.5	46.5	46.5	84	41.9	0	0	---	0.00	29.949 

CoCoRaHS
IN-AL-39
A2 Web Hosting
Creative Commons License
GoDaddy
search engine by freefind advanced

loaded 2018-11-12 20:22:32 • last modified 2010-11-18 10:43:29
Privacy PolicyDisclaimer
• wx.awcolley.com is powered by PmWiki v.2002016 •
• all content (unless otherwise noted) © 2018 A W Colley